< < Back
Terminal Aerodrome Forecast


Current Version              Previous Versions:   1  2  3  4  5  6  7  8  9  

Terminal Aerodrome Forecast

150
FTUS42 KTAE 301700
TAFDHN
TAF
KDHN 301740Z 3018/3118 18005KT P6SM VCSH BKN035 BKN045 BKN090
      TEMPO 3019/3021 5SM TSRA BKN035CB
     FM310000 22005KT P6SM BKN250
     FM311000 00000KT 4SM BR FEW004
     FM311500 16005KT P6SM SCT030 SCT250=



Latest METAR

665
SAUS70 KWBC 311000 RRG
MTRDHN
METAR KDHN 310953Z AUTO 10005KT 10SM CLR 23/22 A3015 RMK AO2 SLP204
T02330222


USA.gov is the U.S. government's official web portal to all federal, state and local government web resources and services.